Time;durP1;ratioP1;P1;durP2;ratioP2;P2;SDS_P1;SDS_P2;PMS_P1;PMS_P2;Temp;Humidity;BMP_temperature;BMP_pressure;BME280_temperature;BME280_humidity;BME280_pressure;Samples;Min_cycle;Max_cycle;Signal;HPM_P1;HPM_P2
2024/02/17 00:00:04;;;;;;;20.13;12.23;;;;;;;;;;701353;28;895;-68
2024/02/17 00:00:25;;;;;;;18.73;12.38;;;;;;;;;;703136;28;795;-69
2024/02/17 00:00:45;;;;;;;19.37;12.23;;;;;;;;;;703675;27;2489;-68
2024/02/17 00:01:05;;;;;;;20.23;12.55;;;;;;;;;;705353;27;840;-69
2024/02/17 00:01:28;;;;;;;21.27;13.00;;;;;;;;;;704821;27;864;-69
2024/02/17 00:01:48;;;;;;;20.17;12.70;;;;;;;;;;702449;27;4266;-67
2024/02/17 00:02:08;;;;;;;18.67;11.77;;;;;;;;;;704307;27;848;-68
2024/02/17 00:02:29;;;;;;;19.20;12.03;;;;;;;;;;703258;27;895;-67
2024/02/17 00:02:49;;;;;;;20.35;12.50;;;;;;;;;;702791;27;1834;-69
2024/02/17 00:03:12;;;;;;;20.60;12.57;;;;;;;;;;702364;27;804;-67
2024/02/17 00:03:32;;;;;;;22.75;12.82;;;;;;;;;;704698;27;970;-68
2024/02/17 00:03:53;;;;;;;21.47;12.17;;;;;;;;;;702090;27;897;-69
2024/02/17 00:04:13;;;;;;;20.35;12.07;;;;;;;;;;703695;27;974;-67
2024/02/17 00:04:33;;;;;;;17.80;11.97;;;;;;;;;;704373;27;4829;-69
2024/02/17 00:04:53;;;;;;;20.30;12.47;;;;;;;;;;702440;28;2072;-67
2024/02/17 00:05:14;;;;;;;19.73;12.43;;;;;;;;;;704380;27;762;-69
2024/02/17 00:05:34;;;;;;;19.57;11.93;;;;;;;;;;702447;28;5034;-68
2024/02/17 00:05:54;;;;;;;20.63;12.40;;;;;;;;;;702899;27;1457;-66
2024/02/17 00:06:14;;;;;;;20.03;12.37;;;;;;;;;;706301;27;807;-67
2024/02/17 00:06:35;;;;;;;20.17;12.20;;;;;;;;;;704174;27;935;-69
2024/02/17 00:06:55;;;;;;;19.27;11.90;;;;;;;;;;701299;28;1842;-69
2024/02/17 00:07:15;;;;;;;19.42;12.45;;;;;;;;;;703380;28;809;-69
2024/02/17 00:07:36;;;;;;;18.77;12.63;;;;;;;;;;703673;28;4503;-70
2024/02/17 00:07:56;;;;;;;17.97;11.47;;;;;;;;;;699688;28;1394;-71
2024/02/17 00:08:17;;;;;;;17.30;11.53;;;;;;;;;;702170;28;889;-68
2024/02/17 00:08:37;;;;;;;18.20;12.10;;;;;;;;;;701654;28;909;-69
2024/02/17 00:08:57;;;;;;;18.90;11.65;;;;;;;;;;698431;28;2282;-70
2024/02/17 00:09:17;;;;;;;18.67;11.90;;;;;;;;;;701086;28;990;-70
2024/02/17 00:09:37;;;;;;;20.77;12.40;;;;;;;;;;701399;28;1111;-69
2024/02/17 00:09:58;;;;;;;19.17;11.83;;;;;;;;;;702453;28;1892;-69
2024/02/17 00:10:18;;;;;;;17.20;11.68;;;;;;;;;;704548;27;916;-69
2024/02/17 00:10:39;;;;;;;19.17;11.70;;;;;;;;;;705456;27;4356;-69
2024/02/17 00:10:59;;;;;;;18.95;11.88;;;;;;;;;;702811;27;1485;-69
2024/02/17 00:11:19;;;;;;;18.10;11.87;;;;;;;;;;705413;27;1089;-69
2024/02/17 00:11:39;;;;;;;18.37;12.10;;;;;;;;;;700861;28;837;-69
2024/02/17 00:12:00;;;;;;;19.23;11.87;;;;;;;;;;699928;28;1686;-69
2024/02/17 00:12:20;;;;;;;18.85;12.27;;;;;;;;;;701428;28;785;-70
2024/02/17 00:12:40;;;;;;;19.20;11.87;;;;;;;;;;701210;28;1038;-68
2024/02/17 00:13:00;;;;;;;18.73;11.50;;;;;;;;;;698903;28;1886;-69
2024/02/17 00:13:21;;;;;;;18.40;10.97;;;;;;;;;;701770;28;758;-68
2024/02/17 00:13:41;;;;;;;20.00;11.50;;;;;;;;;;705023;27;4350;-69
2024/02/17 00:14:02;;;;;;;18.83;11.52;;;;;;;;;;705191;27;821;-69
2024/02/17 00:14:22;;;;;;;17.23;11.87;;;;;;;;;;703194;28;1203;-69
2024/02/17 00:14:42;;;;;;;17.57;11.60;;;;;;;;;;701456;28;1479;-69
2024/02/17 00:15:03;;;;;;;18.77;11.07;;;;;;;;;;702575;27;821;-69
2024/02/17 00:15:23;;;;;;;18.47;11.10;;;;;;;;;;704462;27;840;-67
2024/02/17 00:15:44;;;;;;;19.25;11.50;;;;;;;;;;700657;28;2442;-69
2024/02/17 00:16:07;;;;;;;19.63;11.60;;;;;;;;;;700708;28;1311;-68
2024/02/17 00:16:27;;;;;;;18.23;11.35;;;;;;;;;;700413;28;833;-69
2024/02/17 00:16:48;;;;;;;17.58;11.00;;;;;;;;;;700087;28;4299;-69
2024/02/17 00:17:09;;;;;;;17.02;11.50;;;;;;;;;;701083;28;733;-69
2024/02/17 00:17:29;;;;;;;17.43;11.30;;;;;;;;;;701171;28;872;-67
2024/02/17 00:17:49;;;;;;;16.77;10.53;;;;;;;;;;699568;28;1840;-69
2024/02/17 00:18:10;;;;;;;15.17;10.47;;;;;;;;;;704768;27;784;-69
2024/02/17 00:18:30;;;;;;;18.02;11.07;;;;;;;;;;705218;27;912;-68
2024/02/17 00:18:51;;;;;;;18.97;11.40;;;;;;;;;;700890;27;1462;-69
2024/02/17 00:19:12;;;;;;;18.20;11.20;;;;;;;;;;703674;27;916;-68
2024/02/17 00:19:32;;;;;;;18.38;11.23;;;;;;;;;;704524;27;990;-68
2024/02/17 00:19:52;;;;;;;16.10;10.90;;;;;;;;;;700128;28;4418;-68
2024/02/17 00:20:14;;;;;;;19.10;11.00;;;;;;;;;;703800;27;785;-69
2024/02/17 00:20:34;;;;;;;20.02;10.80;;;;;;;;;;705175;28;967;-69
2024/02/17 00:20:57;;;;;;;17.85;11.10;;;;;;;;;;702833;27;1744;-68
2024/02/17 00:21:17;;;;;;;16.67;10.95;;;;;;;;;;699915;28;1982;-69
2024/02/17 00:21:38;;;;;;;16.95;11.02;;;;;;;;;;701918;28;774;-69
2024/02/17 00:21:58;;;;;;;17.53;11.00;;;;;;;;;;696042;28;904;-69
2024/02/17 00:22:19;;;;;;;17.42;11.07;;;;;;;;;;699512;28;879;-67
2024/02/17 00:22:39;;;;;;;17.47;10.90;;;;;;;;;;697586;28;4337;-69
2024/02/17 00:22:59;;;;;;;16.43;10.53;;;;;;;;;;694709;28;1525;-69
2024/02/17 00:23:20;;;;;;;17.00;10.37;;;;;;;;;;701914;28;975;-68
2024/02/17 00:23:40;;;;;;;17.70;10.63;;;;;;;;;;702475;28;832;-68
2024/02/17 00:24:01;;;;;;;17.50;10.35;;;;;;;;;;702368;27;1822;-68
2024/02/17 00:24:22;;;;;;;17.30;10.35;;;;;;;;;;701965;28;971;-67
2024/02/17 00:24:42;;;;;;;17.60;10.37;;;;;;;;;;701179;28;1270;-68
2024/02/17 00:25:02;;;;;;;17.02;10.93;;;;;;;;;;701158;28;797;-69
2024/02/17 00:25:22;;;;;;;18.33;11.47;;;;;;;;;;701885;28;912;-67
2024/02/17 00:25:43;;;;;;;16.23;10.30;;;;;;;;;;698263;28;4410;-68
2024/02/17 00:26:03;;;;;;;17.02;10.25;;;;;;;;;;701688;28;939;-68
2024/02/17 00:26:24;;;;;;;17.60;10.67;;;;;;;;;;701742;28;1136;-69
2024/02/17 00:26:44;;;;;;;18.63;11.32;;;;;;;;;;699519;28;1953;-69
2024/02/17 00:27:04;;;;;;;16.97;10.07;;;;;;;;;;700938;28;840;-68
2024/02/17 00:27:24;;;;;;;16.30;10.00;;;;;;;;;;702661;28;895;-70
2024/02/17 00:27:45;;;;;;;17.93;10.90;;;;;;;;;;701046;28;1610;-69
2024/02/17 00:28:05;;;;;;;17.67;10.70;;;;;;;;;;704030;27;950;-68
2024/02/17 00:28:26;;;;;;;16.80;10.47;;;;;;;;;;704122;27;769;-69
2024/02/17 00:28:47;;;;;;;16.13;10.57;;;;;;;;;;697973;28;4522;-68
2024/02/17 00:29:08;;;;;;;18.38;10.90;;;;;;;;;;700562;28;963;-68
2024/02/17 00:29:28;;;;;;;16.67;10.60;;;;;;;;;;701218;28;793;-67
2024/02/17 00:29:48;;;;;;;16.60;10.63;;;;;;;;;;700068;28;2059;-68
2024/02/17 00:30:09;;;;;;;17.27;10.53;;;;;;;;;;701442;28;931;-67
2024/02/17 00:30:30;;;;;;;17.63;10.32;;;;;;;;;;701872;28;1997;-69
2024/02/17 00:30:50;;;;;;;17.10;10.70;;;;;;;;;;702403;27;2280;-68
2024/02/17 00:31:10;;;;;;;16.73;10.82;;;;;;;;;;703548;27;836;-67
2024/02/17 00:31:31;;;;;;;19.43;10.73;;;;;;;;;;704051;27;1556;-67
2024/02/17 00:31:51;;;;;;;18.33;10.40;;;;;;;;;;701920;28;4673;-67
2024/02/17 00:32:11;;;;;;;18.77;10.13;;;;;;;;;;702786;28;975;-68
2024/02/17 00:32:31;;;;;;;18.03;10.07;;;;;;;;;;705311;27;923;-68
2024/02/17 00:32:51;;;;;;;19.00;10.70;;;;;;;;;;703758;27;1555;-69
2024/02/17 00:33:12;;;;;;;18.97;10.83;;;;;;;;;;703401;28;1133;-68
2024/02/17 00:33:32;;;;;;;16.60;10.55;;;;;;;;;;704117;27;3350;-68
2024/02/17 00:33:52;;;;;;;15.80;10.00;;;;;;;;;;702272;27;1802;-69
2024/02/17 00:34:13;;;;;;;17.10;9.97;;;;;;;;;;704156;28;861;-68
2024/02/17 00:34:33;;;;;;;19.65;11.45;;;;;;;;;;701642;27;4745;-68
2024/02/17 00:34:53;;;;;;;18.40;11.07;;;;;;;;;;701962;28;2820;-68
2024/02/17 00:35:14;;;;;;;17.23;10.50;;;;;;;;;;703743;28;1452;-69
2024/02/17 00:35:34;;;;;;;20.30;10.73;;;;;;;;;;703518;27;923;-68
2024/02/17 00:35:56;;;;;;;21.97;10.70;;;;;;;;;;701142;28;1820;-69
2024/02/17 00:36:16;;;;;;;18.92;10.38;;;;;;;;;;703299;28;927;-69
2024/02/17 00:36:36;;;;;;;18.27;10.47;;;;;;;;;;703790;28;1467;-69
2024/02/17 00:36:57;;;;;;;17.00;9.93;;;;;;;;;;701801;28;2321;-68
2024/02/17 00:37:17;;;;;;;17.20;10.47;;;;;;;;;;703648;28;931;-69
2024/02/17 00:37:38;;;;;;;18.60;11.00;;;;;;;;;;702586;27;4357;-68
2024/02/17 00:37:58;;;;;;;16.30;10.67;;;;;;;;;;702068;28;1687;-69
2024/02/17 00:38:19;;;;;;;15.90;10.30;;;;;;;;;;705624;27;1073;-68
2024/02/17 00:38:39;;;;;;;16.07;10.17;;;;;;;;;;703478;27;959;-68
2024/02/17 00:38:59;;;;;;;16.65;10.30;;;;;;;;;;702262;28;2514;-69
2024/02/17 00:39:20;;;;;;;16.67;10.63;;;;;;;;;;705052;27;1236;-69
2024/02/17 00:39:40;;;;;;;18.83;11.00;;;;;;;;;;703964;27;750;-68
2024/02/17 00:40:02;;;;;;;18.80;11.10;;;;;;;;;;701528;27;1106;-69
2024/02/17 00:40:23;;;;;;;15.63;9.90;;;;;;;;;;703811;27;841;-68
2024/02/17 00:40:44;;;;;;;16.55;10.27;;;;;;;;;;703785;27;4409;-68
2024/02/17 00:41:06;;;;;;;18.15;10.48;;;;;;;;;;703443;28;1048;-68
2024/02/17 00:41:27;;;;;;;16.88;10.18;;;;;;;;;;701908;27;1046;-69
2024/02/17 00:41:47;;;;;;;19.13;10.38;;;;;;;;;;701890;27;1735;-67
2024/02/17 00:42:07;;;;;;;17.53;10.03;;;;;;;;;;702774;27;1011;-67
2024/02/17 00:42:27;;;;;;;17.20;10.50;;;;;;;;;;704176;27;836;-69
2024/02/17 00:42:48;;;;;;;16.58;10.38;;;;;;;;;;703276;27;1682;-68
2024/02/17 00:43:10;;;;;;;18.93;10.43;;;;;;;;;;704242;28;1223;-67
2024/02/17 00:43:30;;;;;;;16.80;10.50;;;;;;;;;;704486;27;915;-69
2024/02/17 00:43:51;;;;;;;18.08;10.60;;;;;;;;;;699588;28;4479;-69
2024/02/17 00:44:11;;;;;;;18.93;10.47;;;;;;;;;;704602;27;845;-68
2024/02/17 00:44:31;;;;;;;15.90;10.37;;;;;;;;;;704694;27;947;-68
2024/02/17 00:44:51;;;;;;;16.60;10.27;;;;;;;;;;700870;28;2031;-69
2024/02/17 00:45:11;;;;;;;16.40;10.40;;;;;;;;;;702529;27;883;-69
2024/02/17 00:45:32;;;;;;;17.07;9.97;;;;;;;;;;701251;28;948;-67
2024/02/17 00:45:53;;;;;;;18.80;10.43;;;;;;;;;;700379;28;1702;-67
2024/02/17 00:46:14;;;;;;;17.33;10.20;;;;;;;;;;698762;28;996;-68
2024/02/17 00:46:34;;;;;;;16.65;10.07;;;;;;;;;;702133;28;4268;-69
2024/02/17 00:46:55;;;;;;;16.10;10.33;;;;;;;;;;699916;28;1655;-69
2024/02/17 00:47:15;;;;;;;17.97;10.10;;;;;;;;;;702884;28;988;-68
2024/02/17 00:47:35;;;;;;;15.88;9.77;;;;;;;;;;704663;27;924;-68
2024/02/17 00:47:55;;;;;;;16.20;10.10;;;;;;;;;;703621;27;1455;-68
2024/02/17 00:48:15;;;;;;;16.23;9.73;;;;;;;;;;704678;27;962;-70
2024/02/17 00:48:36;;;;;;;17.77;10.33;;;;;;;;;;704761;27;1083;-69
2024/02/17 00:48:57;;;;;;;17.33;10.07;;;;;;;;;;703945;27;2505;-69
2024/02/17 00:49:17;;;;;;;15.07;9.52;;;;;;;;;;705632;27;817;-69
2024/02/17 00:49:37;;;;;;;17.07;10.77;;;;;;;;;;704507;27;4421;-68
2024/02/17 00:49:58;;;;;;;19.43;10.40;;;;;;;;;;701268;27;1788;-68
2024/02/17 00:50:18;;;;;;;17.20;10.48;;;;;;;;;;704902;27;963;-67
2024/02/17 00:50:38;;;;;;;16.07;9.83;;;;;;;;;;704814;27;1968;-69
2024/02/17 00:50:59;;;;;;;15.77;10.07;;;;;;;;;;702660;28;1013;-69
2024/02/17 00:51:19;;;;;;;16.63;9.77;;;;;;;;;;704622;27;1331;-68
2024/02/17 00:51:40;;;;;;;17.57;10.17;;;;;;;;;;704504;27;1211;-69
2024/02/17 00:52:00;;;;;;;18.40;10.37;;;;;;;;;;702286;28;1954;-69
2024/02/17 00:52:20;;;;;;;17.73;10.40;;;;;;;;;;704897;28;844;-69
2024/02/17 00:52:40;;;;;;;18.05;10.90;;;;;;;;;;704090;27;4491;-68
2024/02/17 00:53:01;;;;;;;19.57;10.77;;;;;;;;;;702119;27;1880;-69
2024/02/17 00:53:21;;;;;;;19.37;10.80;;;;;;;;;;703766;28;1338;-69
2024/02/17 00:53:45;;;;;;;19.45;10.90;;;;;;;;;;704506;28;833;-68
2024/02/17 00:54:05;;;;;;;18.70;10.90;;;;;;;;;;701627;28;956;-68
2024/02/17 00:54:25;;;;;;;16.77;10.10;;;;;;;;;;702819;28;888;-68
2024/02/17 00:54:46;;;;;;;17.43;10.13;;;;;;;;;;702395;27;2026;-68
2024/02/17 00:55:06;;;;;;;16.88;10.07;;;;;;;;;;699836;28;1001;-69
2024/02/17 00:55:26;;;;;;;16.23;10.27;;;;;;;;;;701045;28;804;-67
2024/02/17 00:55:47;;;;;;;16.27;9.97;;;;;;;;;;699447;28;4298;-68
2024/02/17 00:56:08;;;;;;;15.80;9.65;;;;;;;;;;699890;28;971;-67
2024/02/17 00:56:28;;;;;;;17.10;10.05;;;;;;;;;;700147;28;1381;-69
2024/02/17 00:56:48;;;;;;;16.53;9.77;;;;;;;;;;699289;28;1779;-69
2024/02/17 00:57:08;;;;;;;16.50;9.90;;;;;;;;;;704267;27;841;-69
2024/02/17 00:57:29;;;;;;;16.67;10.40;;;;;;;;;;701862;28;1123;-69
2024/02/17 00:57:49;;;;;;;17.63;10.03;;;;;;;;;;699821;28;2298;-69
2024/02/17 00:58:09;;;;;;;17.23;10.73;;;;;;;;;;700796;28;1182;-69
2024/02/17 00:58:29;;;;;;;18.93;10.53;;;;;;;;;;700604;28;955;-67
2024/02/17 00:58:50;;;;;;;14.98;10.27;;;;;;;;;;698493;28;4353;-68
2024/02/17 00:59:10;;;;;;;16.57;10.30;;;;;;;;;;701237;28;1030;-67
2024/02/17 00:59:30;;;;;;;17.90;9.93;;;;;;;;;;702775;28;899;-68
2024/02/17 00:59:51;;;;;;;19.30;10.23;;;;;;;;;;700072;28;1779;-69
2024/02/17 01:00:11;;;;;;;18.13;10.53;;;;;;;;;;705183;27;805;-68
2024/02/17 01:00:32;;;;;;;16.73;10.57;;;;;;;;;;704495;27;829;-68
2024/02/17 01:00:52;;;;;;;16.13;10.53;;;;;;;;;;702104;28;931;-68
2024/02/17 01:01:12;;;;;;;17.07;10.57;;;;;;;;;;704968;27;880;-69
2024/02/17 01:01:32;;;;;;;18.02;10.10;;;;;;;;;;704841;27;990;-70
2024/02/17 01:01:54;;;;;;;18.03;10.63;;;;;;;;;;699962;28;8188;-69
2024/02/17 01:02:14;;;;;;;18.58;10.63;;;;;;;;;;705471;27;939;-68
2024/02/17 01:02:35;;;;;;;18.77;10.37;;;;;;;;;;702246;28;943;-68
2024/02/17 01:02:55;;;;;;;19.13;10.45;;;;;;;;;;700594;27;1783;-69
2024/02/17 01:03:16;;;;;;;17.47;10.27;;;;;;;;;;704444;27;817;-67
2024/02/17 01:03:36;;;;;;;16.48;9.93;;;;;;;;;;705209;27;896;-68
2024/02/17 01:03:56;;;;;;;15.17;10.07;;;;;;;;;;703025;27;1791;-69
2024/02/17 01:04:17;;;;;;;16.13;10.03;;;;;;;;;;703334;28;1373;-67
2024/02/17 01:04:37;;;;;;;17.73;10.35;;;;;;;;;;702947;27;4636;-67
2024/02/17 01:04:57;;;;;;;20.27;10.83;;;;;;;;;;701147;27;2685;-68
2024/02/17 01:05:17;;;;;;;21.90;10.53;;;;;;;;;;705017;27;851;-68
2024/02/17 01:05:38;;;;;;;16.80;9.80;;;;;;;;;;704474;27;836;-67
2024/02/17 01:05:59;;;;;;;17.75;10.07;;;;;;;;;;701853;27;1733;-69
2024/02/17 01:06:19;;;;;;;17.07;10.33;;;;;;;;;;705380;27;884;-69
2024/02/17 01:06:39;;;;;;;18.70;10.87;;;;;;;;;;704694;27;923;-68
2024/02/17 01:06:59;;;;;;;19.25;10.60;;;;;;;;;;703655;27;2193;-67
2024/02/17 01:07:20;;;;;;;18.03;10.43;;;;;;;;;;702340;28;848;-68
2024/02/17 01:07:40;;;;;;;16.37;9.90;;;;;;;;;;698872;28;4401;-67
2024/02/17 01:08:00;;;;;;;16.45;10.18;;;;;;;;;;694126;28;1626;-67
2024/02/17 01:08:20;;;;;;;18.63;11.10;;;;;;;;;;695527;28;749;-68
2024/02/17 01:08:41;;;;;;;16.27;10.80;;;;;;;;;;695750;28;964;-67
2024/02/17 01:09:02;;;;;;;18.63;11.18;;;;;;;;;;694304;28;2180;-67
2024/02/17 01:09:22;;;;;;;20.27;12.07;;;;;;;;;;697330;28;5155;-67
2024/02/17 01:09:42;;;;;;;17.00;10.50;;;;;;;;;;700879;28;841;-68
2024/02/17 01:10:03;;;;;;;16.43;10.50;;;;;;;;;;700807;28;2221;-69
2024/02/17 01:10:23;;;;;;;18.42;10.65;;;;;;;;;;703845;28;1905;-68
2024/02/17 01:10:43;;;;;;;17.23;10.13;;;;;;;;;;704288;27;4468;-69
2024/02/17 01:11:04;;;;;;;17.93;11.00;;;;;;;;;;702047;27;1600;-67
2024/02/17 01:11:24;;;;;;;18.70;10.82;;;;;;;;;;704157;27;841;-68
2024/02/17 01:11:44;;;;;;;18.83;11.40;;;;;;;;;;701075;28;1383;-68
2024/02/17 01:12:05;;;;;;;19.03;11.87;;;;;;;;;;700786;28;1687;-68
2024/02/17 01:12:25;;;;;;;20.77;11.23;;;;;;;;;;699934;28;844;-68
2024/02/17 01:12:45;;;;;;;21.10;11.70;;;;;;;;;;698485;28;1914;-68
2024/02/17 01:13:07;;;;;;;19.60;11.55;;;;;;;;;;700070;28;908;-68
2024/02/17 01:13:27;;;;;;;20.08;11.82;;;;;;;;;;701385;28;968;-67
2024/02/17 01:13:48;;;;;;;19.00;11.60;;;;;;;;;;702925;27;4561;-68
2024/02/17 01:14:08;;;;;;;18.95;11.38;;;;;;;;;;703563;27;1042;-69
2024/02/17 01:14:29;;;;;;;21.20;11.77;;;;;;;;;;703785;27;1277;-69
2024/02/17 01:14:49;;;;;;;18.87;11.47;;;;;;;;;;703605;27;2328;-68
2024/02/17 01:15:09;;;;;;;19.43;11.37;;;;;;;;;;703456;27;740;-67
2024/02/17 01:15:30;;;;;;;20.27;12.23;;;;;;;;;;703490;28;801;-67
2024/02/17 01:15:50;;;;;;;20.07;12.07;;;;;;;;;;702471;28;2124;-68
2024/02/17 01:16:10;;;;;;;22.08;12.02;;;;;;;;;;700524;28;1233;-68
2024/02/17 01:16:31;;;;;;;20.90;11.77;;;;;;;;;;701233;28;912;-68
2024/02/17 01:16:51;;;;;;;20.60;11.77;;;;;;;;;;699919;28;4282;-68
2024/02/17 01:17:11;;;;;;;20.17;12.50;;;;;;;;;;701776;28;722;-68
2024/02/17 01:17:31;;;;;;;18.80;12.20;;;;;;;;;;702328;28;902;-69
2024/02/17 01:17:52;;;;;;;18.70;12.20;;;;;;;;;;697948;28;1911;-68
2024/02/17 01:18:12;;;;;;;19.63;12.13;;;;;;;;;;701675;28;940;-68
2024/02/17 01:18:32;;;;;;;19.83;11.50;;;;;;;;;;700384;28;967;-69
2024/02/17 01:18:54;;;;;;;19.83;11.70;;;;;;;;;;698996;28;1716;-69
2024/02/17 01:19:14;;;;;;;19.10;11.65;;;;;;;;;;700639;28;967;-69
2024/02/17 01:19:35;;;;;;;20.17;11.70;;;;;;;;;;697853;28;4264;-69
2024/02/17 01:19:55;;;;;;;19.20;11.67;;;;;;;;;;699337;28;1768;-69
2024/02/17 01:20:15;;;;;;;18.80;11.33;;;;;;;;;;698998;27;921;-69
2024/02/17 01:20:36;;;;;;;18.10;11.60;;;;;;;;;;704841;27;884;-68
2024/02/17 01:20:56;;;;;;;19.23;11.70;;;;;;;;;;701932;28;1042;-69
2024/02/17 01:21:16;;;;;;;19.20;11.70;;;;;;;;;;703386;28;1433;-68
2024/02/17 01:21:37;;;;;;;20.38;12.45;;;;;;;;;;703111;28;928;-68
2024/02/17 01:21:57;;;;;;;19.80;11.97;;;;;;;;;;701207;28;1813;-67
2024/02/17 01:22:17;;;;;;;21.27;11.63;;;;;;;;;;702911;28;897;-68
2024/02/17 01:22:37;;;;;;;20.50;11.85;;;;;;;;;;701607;27;4320;-67
2024/02/17 01:22:58;;;;;;;19.17;12.00;;;;;;;;;;700920;28;2240;-68
2024/02/17 01:23:18;;;;;;;17.97;11.97;;;;;;;;;;703931;27;817;-68
2024/02/17 01:23:38;;;;;;;18.55;11.13;;;;;;;;;;703733;28;810;-68
2024/02/17 01:23:59;;;;;;;20.90;11.97;;;;;;;;;;699974;28;1307;-69
2024/02/17 01:24:19;;;;;;;19.53;12.27;;;;;;;;;;704619;28;884;-67
2024/02/17 01:24:41;;;;;;;21.42;12.68;;;;;;;;;;701216;28;831;-68
2024/02/17 01:25:01;;;;;;;22.92;12.48;;;;;;;;;;700364;28;1886;-69
2024/02/17 01:25:23;;;;;;;21.00;12.20;;;;;;;;;;700333;28;1072;-68
2024/02/17 01:25:43;;;;;;;19.30;12.02;;;;;;;;;;698068;28;4338;-68
2024/02/17 01:26:04;;;;;;;20.57;12.17;;;;;;;;;;696561;28;1481;-68
2024/02/17 01:26:24;;;;;;;23.58;12.32;;;;;;;;;;698904;28;1458;-67
2024/02/17 01:26:44;;;;;;;22.10;12.23;;;;;;;;;;700064;28;931;-68
2024/02/17 01:27:07;;;;;;;20.63;12.07;;;;;;;;;;697987;28;2435;-68
2024/02/17 01:27:27;;;;;;;20.60;12.15;;;;;;;;;;701779;28;960;-69
2024/02/17 01:27:48;;;;;;;20.80;12.30;;;;;;;;;;700331;28;980;-68
2024/02/17 01:28:08;;;;;;;19.25;12.20;;;;;;;;;;700739;28;1157;-69
2024/02/17 01:28:28;;;;;;;19.57;11.77;;;;;;;;;;700960;28;983;-68
2024/02/17 01:28:48;;;;;;;21.37;12.27;;;;;;;;;;699454;28;4474;-69
2024/02/17 01:29:09;;;;;;;21.40;12.27;;;;;;;;;;697456;28;873;-69
2024/02/17 01:29:29;;;;;;;19.70;12.20;;;;;;;;;;698231;28;897;-68
2024/02/17 01:29:49;;;;;;;18.70;12.17;;;;;;;;;;698940;28;3426;-68
2024/02/17 01:30:09;;;;;;;19.30;11.80;;;;;;;;;;698488;28;1459;-68
2024/02/17 01:30:30;;;;;;;19.33;12.43;;;;;;;;;;698783;28;1971;-69
2024/02/17 01:30:50;;;;;;;18.70;11.80;;;;;;;;;;696465;28;2470;-68
2024/02/17 01:31:10;;;;;;;19.50;12.45;;;;;;;;;;700423;28;797;-68
2024/02/17 01:31:30;;;;;;;19.33;12.23;;;;;;;;;;700751;28;974;-69
2024/02/17 01:31:51;;;;;;;18.23;11.97;;;;;;;;;;697353;28;4458;-67
2024/02/17 01:32:12;;;;;;;18.58;12.13;;;;;;;;;;700990;28;825;-68
2024/02/17 01:32:32;;;;;;;20.17;12.40;;;;;;;;;;703553;28;916;-68
2024/02/17 01:32:52;;;;;;;21.20;12.67;;;;;;;;;;703448;27;1733;-68
2024/02/17 01:33:12;;;;;;;20.70;12.40;;;;;;;;;;702897;28;1428;-68
2024/02/17 01:33:33;;;;;;;21.53;12.30;;;;;;;;;;701425;28;960;-70
2024/02/17 01:33:53;;;;;;;21.27;12.32;;;;;;;;;;701652;28;1130;-68
2024/02/17 01:34:13;;;;;;;19.63;12.13;;;;;;;;;;701323;28;857;-69
2024/02/17 01:34:33;;;;;;;20.57;12.20;;;;;;;;;;701052;28;4517;-68
2024/02/17 01:34:54;;;;;;;21.20;11.98;;;;;;;;;;699099;28;2300;-69
2024/02/17 01:35:14;;;;;;;19.20;12.13;;;;;;;;;;700995;28;940;-68
2024/02/17 01:35:35;;;;;;;20.03;12.47;;;;;;;;;;703736;28;888;-68
2024/02/17 01:35:55;;;;;;;21.63;12.80;;;;;;;;;;701822;28;2830;-69
2024/02/17 01:36:16;;;;;;;19.10;12.65;;;;;;;;;;703863;27;911;-69
2024/02/17 01:36:36;;;;;;;21.55;13.00;;;;;;;;;;703473;27;1364;-70
2024/02/17 01:36:57;;;;;;;20.40;12.47;;;;;;;;;;702997;27;1144;-69
2024/02/17 01:37:18;;;;;;;21.73;12.20;;;;;;;;;;705317;28;940;-70
2024/02/17 01:37:39;;;;;;;21.40;12.15;;;;;;;;;;701596;28;4647;-68
2024/02/17 01:38:02;;;;;;;19.67;12.10;;;;;;;;;;699560;28;1926;-69
2024/02/17 01:38:22;;;;;;;20.50;12.82;;;;;;;;;;702212;28;1026;-69
2024/02/17 01:38:43;;;;;;;21.13;12.88;;;;;;;;;;700106;28;1827;-68
2024/02/17 01:39:04;;;;;;;20.63;13.00;;;;;;;;;;698765;28;1876;-68
2024/02/17 01:39:27;;;;;;;21.02;12.98;;;;;;;;;;703737;28;1250;-69
2024/02/17 01:39:47;;;;;;;22.80;13.63;;;;;;;;;;702296;27;1496;-67
2024/02/17 01:40:08;;;;;;;22.63;13.10;;;;;;;;;;703657;28;874;-68
2024/02/17 01:40:29;;;;;;;20.75;12.57;;;;;;;;;;705549;27;925;-68
2024/02/17 01:40:49;;;;;;;20.73;12.57;;;;;;;;;;702688;27;4303;-69
2024/02/17 01:41:10;;;;;;;20.23;12.93;;;;;;;;;;701814;28;908;-68
2024/02/17 01:41:30;;;;;;;21.73;13.40;;;;;;;;;;703840;28;888;-68
2024/02/17 01:41:50;;;;;;;21.00;13.23;;;;;;;;;;699178;28;1756;-67
2024/02/17 01:42:11;;;;;;;20.00;13.23;;;;;;;;;;698864;28;919;-68
2024/02/17 01:42:31;;;;;;;21.38;13.27;;;;;;;;;;700453;28;1188;-68
2024/02/17 01:42:52;;;;;;;21.07;12.87;;;;;;;;;;698312;28;2006;-69
2024/02/17 01:43:13;;;;;;;22.00;13.32;;;;;;;;;;701506;28;788;-68
2024/02/17 01:43:34;;;;;;;22.52;13.07;;;;;;;;;;701619;28;4306;-69
2024/02/17 01:43:54;;;;;;;21.50;13.00;;;;;;;;;;703425;28;2060;-69
2024/02/17 01:44:14;;;;;;;19.35;13.35;;;;;;;;;;700453;28;1223;-67
2024/02/17 01:44:35;;;;;;;21.17;13.50;;;;;;;;;;701555;28;950;-68
2024/02/17 01:44:55;;;;;;;21.60;12.90;;;;;;;;;;700658;28;1062;-68
2024/02/17 01:45:15;;;;;;;22.70;12.73;;;;;;;;;;702949;28;864;-68
2024/02/17 01:45:35;;;;;;;22.88;13.38;;;;;;;;;;702641;28;797;-68
2024/02/17 01:45:56;;;;;;;20.23;13.27;;;;;;;;;;698304;28;1787;-68
2024/02/17 01:46:17;;;;;;;22.08;12.75;;;;;;;;;;700419;28;1263;-68
2024/02/17 01:46:37;;;;;;;22.45;13.15;;;;;;;;;;698901;28;4342;-68
2024/02/17 01:46:58;;;;;;;22.17;13.33;;;;;;;;;;697326;28;2785;-68
2024/02/17 01:47:19;;;;;;;24.27;13.32;;;;;;;;;;699060;28;833;-68
2024/02/17 01:47:39;;;;;;;20.85;13.40;;;;;;;;;;696175;28;1666;-67
2024/02/17 01:48:00;;;;;;;20.77;13.20;;;;;;;;;;694426;28;2200;-67
2024/02/17 01:48:20;;;;;;;22.75;13.02;;;;;;;;;;696917;28;1153;-67
2024/02/17 01:48:42;;;;;;;21.87;12.90;;;;;;;;;;695761;28;1230;-68
2024/02/17 01:49:02;;;;;;;20.60;12.88;;;;;;;;;;694751;28;2135;-67
2024/02/17 01:49:22;;;;;;;20.67;13.37;;;;;;;;;;695765;28;927;-68
2024/02/17 01:49:43;;;;;;;22.00;13.53;;;;;;;;;;697493;28;5097;-67
2024/02/17 01:50:04;;;;;;;23.27;13.63;;;;;;;;;;699941;28;1822;-67
2024/02/17 01:50:24;;;;;;;22.48;13.63;;;;;;;;;;704302;28;1026;-68
2024/02/17 01:50:44;;;;;;;21.10;13.23;;;;;;;;;;704705;28;832;-67
2024/02/17 01:51:06;;;;;;;23.65;13.80;;;;;;;;;;702712;28;2499;-67
2024/02/17 01:51:26;;;;;;;24.63;14.00;;;;;;;;;;703420;28;955;-68
2024/02/17 01:51:47;;;;;;;23.83;14.05;;;;;;;;;;705219;28;849;-68
2024/02/17 01:52:07;;;;;;;23.23;13.50;;;;;;;;;;701658;28;2211;-67
2024/02/17 01:52:28;;;;;;;22.98;13.90;;;;;;;;;;704184;28;892;-67
2024/02/17 01:52:49;;;;;;;22.88;14.18;;;;;;;;;;702084;27;4599;-68
2024/02/17 01:53:09;;;;;;;21.67;13.77;;;;;;;;;;702932;28;919;-67
2024/02/17 01:53:30;;;;;;;21.63;13.67;;;;;;;;;;702111;28;1133;-67
2024/02/17 01:53:50;;;;;;;21.63;14.07;;;;;;;;;;700678;28;1842;-67
2024/02/17 01:54:11;;;;;;;22.13;14.38;;;;;;;;;;701167;28;995;-67
2024/02/17 01:54:32;;;;;;;22.50;14.43;;;;;;;;;;702423;28;816;-68
2024/02/17 01:54:52;;;;;;;23.38;14.70;;;;;;;;;;696199;28;1589;-68
2024/02/17 01:55:13;;;;;;;23.80;14.83;;;;;;;;;;698624;28;900;-69
2024/02/17 01:55:34;;;;;;;22.83;14.38;;;;;;;;;;700441;28;4617;-67
2024/02/17 01:55:58;;;;;;;24.35;14.90;;;;;;;;;;695392;28;2647;-68
2024/02/17 01:56:20;;;;;;;25.75;14.82;;;;;;;;;;698747;28;812;-68
2024/02/17 01:56:42;;;;;;;22.63;13.98;;;;;;;;;;700089;28;1054;-68
2024/02/17 01:57:02;;;;;;;21.98;13.50;;;;;;;;;;700305;28;1269;-68
2024/02/17 01:57:22;;;;;;;21.67;14.20;;;;;;;;;;698246;28;1290;-67
2024/02/17 01:57:44;;;;;;;22.08;13.82;;;;;;;;;;699644;28;928;-67
2024/02/17 01:58:04;;;;;;;23.02;14.43;;;;;;;;;;698487;28;4804;-66
2024/02/17 01:58:24;;;;;;;23.37;14.87;;;;;;;;;;701446;28;804;-67
2024/02/17 01:58:45;;;;;;;21.93;14.50;;;;;;;;;;700514;28;4342;-68
2024/02/17 01:59:05;;;;;;;23.47;13.87;;;;;;;;;;699378;28;2286;-67
2024/02/17 01:59:26;;;;;;;24.38;14.35;;;;;;;;;;704107;28;927;-67
2024/02/17 01:59:47;;;;;;;22.73;14.18;;;;;;;;;;705482;28;840;-68
2024/02/17 02:00:09;;;;;;;22.30;14.02;;;;;;;;;;702389;28;1718;-67
2024/02/17 02:00:33;;;;;;;22.88;14.07;;;;;;;;;;705630;28;1018;-67
2024/02/17 02:00:53;;;;;;;21.93;14.40;;;;;;;;;;703627;28;2028;-67
2024/02/17 02:01:14;;;;;;;22.20;13.50;;;;;;;;;;701311;28;817;-67
2024/02/17 02:01:37;;;;;;;21.90;13.48;;;;;;;;;;701190;28;4571;-68
2024/02/17 02:01:58;;;;;;;22.05;13.77;;;;;;;;;;699296;28;1453;-67
2024/02/17 02:02:19;;;;;;;21.77;14.50;;;;;;;;;;701643;28;903;-68
2024/02/17 02:02:40;;;;;;;22.45;14.32;;;;;;;;;;701930;28;927;-67
2024/02/17 02:03:01;;;;;;;21.25;14.43;;;;;;;;;;701010;28;1068;-67
2024/02/17 02:03:21;;;;;;;22.65;14.68;;;;;;;;;;700569;28;1128;-68
2024/02/17 02:03:41;;;;;;;23.33;14.93;;;;;;;;;;701693;28;892;-67
2024/02/17 02:04:02;;;;;;;24.13;14.50;;;;;;;;;;698954;28;1703;-67